»·PEaware :: HYDRA62 KDLF-KMAF

HYDRA62 :: KDLF-KMAF

FLIGHT INFORMATION

Flight Status: Arrived
Operator: Unknown
More flights by this operator :: More flights under this callsign
Pilot: 47th FTW Laughlin (28783)
Aircraft: BEECH AIRCRAFT T-6A TEXAN
(TEX2)
More flights by this aircraft type
Origin: KDLF Laughlin AFB
United States
Destination: KMAF Midland Intl
United States
More flights between these airports :: More routes between these airports
Route: +HINKO JCT SJT
File this flight plan on PilotEdge
Remarks:
Altitude:
(Current/Filed)
16,000ft
Speed:
(Current/Filed)
0kts
Departed: 04-Aug-20 07:28 AM
Arrived: 04-Aug-20 08:51 AM
Distance/Time
Traveled:
172nm/1:23
Distance/Time
To Go:
Arrived

Flight Plot

Page will automatically refresh every two minutes.

Flight plan parsing failed; only flown route is shown


Map Options




Map Legend


Flown Route
Filed Route
Departure Airport
Arrival Airport
Navaid (VOR, NDB)
Fix

Horizontal Profiles

Position Reports

Time Latitude Longitude Heading Altitude Ground
Speed
04-Aug-20 07:07 29.362755 -100.787739 45 1074ft 0kts
04-Aug-20 07:08 29.362901 -100.787574 32 1074ft 4kts
04-Aug-20 07:09 29.364205 -100.788898 321 1075ft 7kts
04-Aug-20 07:10 29.366251 -100.788457 32 1078ft 8kts
04-Aug-20 07:11 29.366694 -100.788006 46 1079ft 0kts
04-Aug-20 07:12 29.366748 -100.787941 47 1079ft 0kts
04-Aug-20 07:13 29.366748 -100.787941 47 1079ft 0kts
04-Aug-20 07:14 29.366748 -100.787941 47 1079ft 0kts
04-Aug-20 07:15 29.366748 -100.787941 47 1079ft 0kts
04-Aug-20 07:16 29.366748 -100.787941 47 1079ft 0kts
04-Aug-20 07:17 29.366748 -100.787941 47 1079ft 0kts
04-Aug-20 07:18 29.366748 -100.787941 47 1079ft 0kts
04-Aug-20 07:19 29.366748 -100.787941 47 1079ft 0kts
04-Aug-20 07:20 29.366818 -100.787860 44 1080ft 0kts
04-Aug-20 07:21 29.366727 -100.787088 132 1080ft 7kts
04-Aug-20 07:22 29.362757 -100.787737 44 1074ft 0kts
04-Aug-20 07:23 29.362849 -100.787636 46 1074ft 5kts
04-Aug-20 07:24 29.364052 -100.788743 315 1075ft 6kts
04-Aug-20 07:25 29.365478 -100.789448 43 1077ft 4kts
04-Aug-20 07:26 29.366646 -100.788093 44 1079ft 0kts
04-Aug-20 07:28 29.362721 -100.782513 135 1181ft 102kts
04-Aug-20 07:29 29.339739 -100.754638 133 2477ft 182kts
04-Aug-20 07:30 29.298626 -100.710351 138 4748ft 204kts
04-Aug-20 07:31 29.283812 -100.680067 93 6202ft 211kts
04-Aug-20 07:32 29.260144 -100.619198 132 8859ft 211kts
04-Aug-20 07:33 29.219225 -100.563911 130 11371ft 219kts
04-Aug-20 07:34 29.179096 -100.505100 126 13052ft 251kts
04-Aug-20 07:35 29.137517 -100.442571 129 12968ft 231kts
04-Aug-20 07:36 29.096018 -100.384552 128 12923ft 230kts
04-Aug-20 07:37 29.056604 -100.325985 127 13012ft 231kts
04-Aug-20 07:38 29.024750 -100.276642 127 13032ft 231kts
04-Aug-20 07:39 28.984519 -100.218564 129 12998ft 233kts
04-Aug-20 07:40 28.955128 -100.174673 130 13007ft 234kts
04-Aug-20 07:41 28.952975 -100.110261 30 12635ft 249kts
04-Aug-20 07:42 29.025266 -100.113349 353 13065ft 271kts
04-Aug-20 07:42 29.089204 -100.122962 354 12964ft 271kts
04-Aug-20 07:44 29.177803 -100.134885 354 12981ft 259kts
04-Aug-20 07:45 29.251512 -100.145778 353 12922ft 255kts
04-Aug-20 07:46 29.325385 -100.156923 354 12980ft 255kts
04-Aug-20 07:47 29.399888 -100.168552 353 12983ft 255kts
04-Aug-20 07:47 29.461814 -100.178033 354 12964ft 258kts
04-Aug-20 07:48 29.536433 -100.188815 356 13028ft 259kts
04-Aug-20 07:49 29.612198 -100.200674 353 12989ft 283kts
04-Aug-20 07:50 29.691762 -100.212445 354 12957ft 267kts
04-Aug-20 07:52 29.780370 -100.227309 353 13013ft 273kts
04-Aug-20 07:52 29.845688 -100.239781 353 12973ft 280kts
04-Aug-20 07:53 29.925117 -100.232293 12 13063ft 280kts
04-Aug-20 07:54 29.996988 -100.195478 34 13044ft 278kts
04-Aug-20 07:55 30.065598 -100.150173 32 13026ft 277kts
04-Aug-20 07:56 30.098155 -100.148001 343 12571ft 296kts
04-Aug-20 07:57 30.137593 -100.163554 356 13053ft 279kts
04-Aug-20 07:58 30.217172 -100.176394 358 13145ft 296kts
04-Aug-20 07:59 30.274483 -100.169782 15 12924ft 275kts
04-Aug-20 08:00 30.310506 -100.161012 19 12683ft 269kts
04-Aug-20 08:01 30.379294 -100.126290 10 12975ft 279kts
04-Aug-20 08:02 30.432193 -100.116989 17 13085ft 280kts
04-Aug-20 08:03 30.509965 -100.094580 13 12871ft 283kts
04-Aug-20 08:04 30.580418 -100.077141 13 12987ft 246kts
04-Aug-20 08:05 30.646562 -100.056988 20 13023ft 252kts
04-Aug-20 08:06 30.687636 -100.035240 19 13035ft 272kts
04-Aug-20 08:07 30.687636 -100.035240 19 13035ft 272kts
04-Aug-20 08:08 30.740635 -100.016423 19 12980ft 284kts
04-Aug-20 08:09 30.818515 -100.004833 332 12968ft 300kts
04-Aug-20 08:10 30.886793 -100.057117 324 12991ft 286kts
04-Aug-20 08:11 30.952139 -100.111743 325 13165ft 288kts
04-Aug-20 08:12 31.017178 -100.163795 327 12738ft 275kts
04-Aug-20 08:13 31.075754 -100.219994 317 13176ft 264kts
04-Aug-20 08:14 31.133399 -100.274594 323 12981ft 275kts
04-Aug-20 08:15 31.195701 -100.327320 328 13543ft 283kts
04-Aug-20 08:16 31.268234 -100.376223 328 13018ft 303kts
04-Aug-20 08:17 31.340139 -100.428384 329 12999ft 302kts
04-Aug-20 08:18 31.396758 -100.494620 260 12932ft 299kts
04-Aug-20 08:19 31.423535 -100.584006 294 13016ft 302kts
04-Aug-20 08:20 31.456853 -100.674030 290 13069ft 300kts
04-Aug-20 08:21 31.485674 -100.766051 279 12515ft 320kts
04-Aug-20 08:22 31.509444 -100.856595 302 13100ft 296kts
04-Aug-20 08:23 31.553417 -100.939617 298 13165ft 298kts
04-Aug-20 08:24 31.593201 -101.024861 300 13620ft 291kts
04-Aug-20 08:25 31.613620 -101.120894 283 13047ft 304kts
04-Aug-20 08:26 31.634438 -101.216667 284 12998ft 301kts
04-Aug-20 08:27 31.653780 -101.311348 290 13056ft 301kts
04-Aug-20 08:28 31.686087 -101.402420 291 12972ft 302kts
04-Aug-20 08:29 31.718321 -101.493314 294 12951ft 302kts
04-Aug-20 08:30 31.755043 -101.580399 297 12968ft 292kts
04-Aug-20 08:31 31.790173 -101.666431 295 12859ft 296kts
04-Aug-20 08:32 31.826940 -101.751207 295 13048ft 289kts
04-Aug-20 08:33 31.862363 -101.836918 295 13211ft 286kts
04-Aug-20 08:34 31.896418 -101.923649 296 12881ft 296kts
04-Aug-20 08:35 31.939187 -102.017977 299 9640ft 335kts
04-Aug-20 08:36 31.979658 -102.116317 292 6855ft 296kts
04-Aug-20 08:37 32.010256 -102.191782 284 5067ft 190kts
04-Aug-20 08:38 32.007235 -102.232119 261 4989ft 199kts
04-Aug-20 08:39 32.007235 -102.232119 261 4989ft 199kts
04-Aug-20 08:40 32.006147 -102.241990 265 5025ft 201kts
04-Aug-20 08:41 32.044611 -102.280418 327 5034ft 187kts
04-Aug-20 08:42 32.091700 -102.319043 327 5064ft 218kts
04-Aug-20 08:43 32.092531 -102.370542 191 5018ft 191kts
04-Aug-20 08:44 32.047966 -102.361903 162 4920ft 144kts
04-Aug-20 08:45 32.007220 -102.353960 181 5059ft 153kts
04-Aug-20 08:46 31.987365 -102.322754 116 4822ft 109kts
04-Aug-20 08:47 31.975861 -102.291690 116 4280ft 101kts
04-Aug-20 08:48 31.964374 -102.260913 116 3726ft 103kts
04-Aug-20 08:49 31.952425 -102.229275 116 3155ft 104kts
04-Aug-20 08:50 31.943962 -102.206484 116 2875ft 12kts
04-Aug-20 08:51 31.942720 -102.206771 298 2875ft 2kts
04-Aug-20 08:52 31.943011 -102.207198 320 2875ft 0kts
04-Aug-20 08:53 31.943011 -102.207198 320 2875ft 0kts
04-Aug-20 08:54 31.943011 -102.207198 320 2875ft 0kts
04-Aug-20 08:55 31.943011 -102.207198 320 2875ft 0kts
04-Aug-20 08:56 31.943011 -102.207198 320 2875ft 0kts
04-Aug-20 08:57 31.943011 -102.207198 320 2875ft 0kts
04-Aug-20 08:58 31.943011 -102.207198 320 2875ft 0kts
04-Aug-20 08:59 31.943011 -102.207198 320 2875ft 0kts
04-Aug-20 09:00 31.943011 -102.207198 320 2875ft 0kts
04-Aug-20 09:01 31.943011 -102.207198 320 2875ft 0kts
04-Aug-20 09:02 31.943011 -102.207198 320 2875ft 0kts
04-Aug-20 09:03 31.943011 -102.207198 320 2875ft 0kts
04-Aug-20 09:04 31.943011 -102.207198 320 2875ft 0kts

Navigation Log

Ident Type
Flight plan parsing failed, navigation log unavailable